Terminal Aerodrome Forecast
Issued by NWS St Louis, MO

Home | Current Version | Previous Version | Text Only | Print | Product List | Glossary On
Versions: 1 2 3 4 5 6 7 8 9 10 11 12 13 14 15 16 17 18 19 20 21 22 23 24 25 26 27 28 29 30 31
000
FTUS43 KLSX 210100 AAB
TAFSTL
TAF AMD
KSTL 210126Z 2101/2206 16009KT P6SM VCTS SCT060CB
      TEMPO 2101/2102 28010G20KT 4SM -TSRA BKN060CB
     FM210200 18006KT P6SM FEW200
     FM211300 23010KT P6SM SCT050
     FM220000 20009KT P6SM SKC=

USA.gov is the U.S. government's official web portal to all federal, state and local government web resources and services.